<?xml version='1.0' encoding='UTF-8'?><gpx version="1.1" creator="JPX - https://github.com/jenetics/jpx" xmlns="http://www.topografix.com/GPX/1/1"><trk><trkseg><trkpt lat="41.738832649292576" lon="12.711733126768873"><ele>692.0</ele><time>2026-04-05T10:22:49.995Z</time></trkpt><trkpt lat="41.738828598577626" lon="12.711643809984734"><ele>692.0</ele><time>2026-04-05T10:22:55.997Z</time></trkpt><trkpt lat="41.738887214628626" lon="12.711575887723141"><ele>692.0</ele><time>2026-04-05T10:23:16Z</time></trkpt><trkpt lat="41.73890475160735" lon="12.711462481084707"><ele>692.0</ele><time>2026-04-05T10:23:19Z</time></trkpt><trkpt lat="41.738948187975346" lon="12.711373366714742"><ele>692.0</ele><time>2026-04-05T10:23:21Z</time></trkpt><trkpt lat="41.7389064441059" lon="12.711289927155175"><ele>692.0</ele><time>2026-04-05T10:23:24Z</time></trkpt><trkpt lat="41.73890973996657" lon="12.711175627474491"><ele>692.0</ele><time>2026-04-05T10:23:27Z</time></trkpt><trkpt lat="41.73890150958248" lon="12.711080679201894"><ele>692.0</ele><time>2026-04-05T10:23:29Z</time></trkpt><trkpt lat="41.73893697354004" lon="12.710991688018062"><ele>692.0</ele><time>2026-04-05T10:23:32Z</time></trkpt><trkpt lat="41.73890605381953" lon="12.710913770214873"><ele>692.0</ele><time>2026-04-05T10:23:34Z</time></trkpt><trkpt lat="41.738887676404744" lon="12.710803896178469"><ele>692.0</ele><time>2026-04-05T10:23:36Z</time></trkpt><trkpt lat="41.738885690013724" lon="12.710703841151762"><ele>692.0</ele><time>2026-04-05T10:23:38Z</time></trkpt><trkpt lat="41.7389091518997" lon="12.710596807441778"><ele>689.4000000000001</ele><time>2026-04-05T10:23:42Z</time></trkpt><trkpt lat="41.738948147405814" lon="12.710447644021938"><ele>686.8000000000001</ele><time>2026-04-05T10:23:44.001Z</time></trkpt><trkpt lat="41.738943221191064" lon="12.710331588483536"><ele>684.2</ele><time>2026-04-05T10:23:46.001Z</time></trkpt><trkpt lat="41.738926318652354" lon="12.71020131226904"><ele>681.6</ele><time>2026-04-05T10:23:48.001Z</time></trkpt><trkpt lat="41.73899377164824" lon="12.710122669114488"><ele>679.0</ele><time>2026-04-05T10:23:51.001Z</time></trkpt><trkpt lat="41.739029755463044" lon="12.710025470143117"><ele>677.1666666666667</ele><time>2026-04-05T10:23:54.001Z</time></trkpt><trkpt lat="41.73910246706789" lon="12.709934517475956"><ele>675.3333333333334</ele><time>2026-04-05T10:23:58.001Z</time></trkpt><trkpt lat="41.73914073521976" lon="12.709846879588522"><ele>673.5</ele><time>2026-04-05T10:24:01.001Z</time></trkpt><trkpt lat="41.73920339016052" lon="12.709759387890916"><ele>671.6666666666666</ele><time>2026-04-05T10:24:04.001Z</time></trkpt><trkpt lat="41.739263252632064" lon="12.70967791173697"><ele>669.8333333333333</ele><time>2026-04-05T10:24:06.001Z</time></trkpt><trkpt lat="41.73926194502087" lon="12.709590968602273"><ele>668.0</ele><time>2026-04-05T10:24:09.001Z</time></trkpt><trkpt lat="41.73923311779356" lon="12.709476400800499"><ele>666.7142857142857</ele><time>2026-04-05T10:24:13.001Z</time></trkpt><trkpt lat="41.739220436906024" lon="12.709369219064596"><ele>665.4285714285714</ele><time>2026-04-05T10:24:18.001Z</time></trkpt><trkpt lat="41.739213095190784" lon="12.709278356064797"><ele>664.1428571428571</ele><time>2026-04-05T10:24:21.001Z</time></trkpt><trkpt lat="41.739249445316105" lon="12.709182655602207"><ele>662.8571428571429</ele><time>2026-04-05T10:24:25.001Z</time></trkpt><trkpt lat="41.739313420900736" lon="12.709185616143252"><ele>661.5714285714286</ele><time>2026-04-05T10:24:28.001Z</time></trkpt><trkpt lat="41.73935737344592" lon="12.70911707517033"><ele>660.2857142857143</ele><time>2026-04-05T10:24:30Z</time></trkpt><trkpt lat="41.73940941091496" lon="12.709032576220938"><ele>659.0</ele><time>2026-04-05T10:24:31.999Z</time></trkpt><trkpt lat="41.739489136233104" lon="12.708971962034964"><ele>657.6666666666666</ele><time>2026-04-05T10:24:34.999Z</time></trkpt><trkpt lat="41.73954922940184" lon="12.708883743890894"><ele>656.3333333333333</ele><time>2026-04-05T10:24:37Z</time></trkpt><trkpt lat="41.73950332219227" lon="12.708815829653776"><ele>655.0</ele><time>2026-04-05T10:24:40Z</time></trkpt><trkpt lat="41.73948752501852" lon="12.708723043131945"><ele>653.6666666666666</ele><time>2026-04-05T10:24:43Z</time></trkpt><trkpt lat="41.739439517714175" lon="12.708628927941817"><ele>652.3333333333334</ele><time>2026-04-05T10:24:46Z</time></trkpt><trkpt lat="41.73938695591409" lon="12.708530153664553"><ele>651.0</ele><time>2026-04-05T10:24:50Z</time></trkpt><trkpt lat="41.73933671708472" lon="12.708415037367802"><ele>650.4</ele><time>2026-04-05T10:24:53Z</time></trkpt><trkpt lat="41.73930232630302" lon="12.708309450992978"><ele>649.8</ele><time>2026-04-05T10:24:56Z</time></trkpt><trkpt lat="41.73933641129651" lon="12.70822032286559"><ele>649.1999999999999</ele><time>2026-04-05T10:24:59Z</time></trkpt><trkpt lat="41.739352728977906" lon="12.70812189177664"><ele>648.5999999999999</ele><time>2026-04-05T10:25:01Z</time></trkpt><trkpt lat="41.73938251666219" lon="12.707993770259453"><ele>648.0</ele><time>2026-04-05T10:25:04Z</time></trkpt><trkpt lat="41.739463076012974" lon="12.707823767348723"><ele>641.0</ele><time>2026-04-05T10:25:06Z</time></trkpt><trkpt lat="41.73949002011818" lon="12.707720520347214"><ele>636.0</ele><time>2026-04-05T10:25:12Z</time></trkpt><trkpt lat="41.73950986926728" lon="12.707635809839656"><ele>636.0</ele><time>2026-04-05T10:25:21Z</time></trkpt></trkseg></trk></gpx>